Time;durP1;ratioP1;P1;durP2;ratioP2;P2;SDS_P1;SDS_P2;PMS_P1;PMS_P2;Temp;Humidity;BMP_temperature;BMP_pressure;BME280_temperature;BME280_humidity;BME280_pressure;Samples;Min_cycle;Max_cycle;Signal;HPM_P1;HPM_P2
2021/03/26 00:01:12;;;;;;;8.67;2.73;;;;;;;;;;4363627;32;20265;-73
2021/03/26 00:03:38;;;;;;;9.33;3.10;;;;;;;;;;4377125;32;20158;-74
2021/03/26 00:06:05;;;;;;;7.63;3.10;;;;;;;;;;4378197;32;20319;-75
2021/03/26 00:08:31;;;;;;;6.07;2.60;;;;;;;;;;4377101;32;20497;-75
2021/03/26 00:10:56;;;;;;;13.40;3.40;;;;;;;;;;4376754;32;20180;-75
2021/03/26 00:13:22;;;;;;;7.80;3.30;;;;;;;;;;4376911;32;20123;-74
2021/03/26 00:15:47;;;;;;;12.73;4.23;;;;;;;;;;4378617;32;20180;-74
2021/03/26 00:18:12;;;;;;;13.13;4.43;;;;;;;;;;4363294;32;20166;-73
2021/03/26 00:20:38;;;;;;;10.07;4.20;;;;;;;;;;4376870;32;20161;-74
2021/03/26 00:23:03;;;;;;;16.17;4.87;;;;;;;;;;4378261;32;20162;-73
2021/03/26 00:25:29;;;;;;;12.23;4.93;;;;;;;;;;4382867;32;20503;-75
2021/03/26 00:27:54;;;;;;;13.03;5.10;;;;;;;;;;4391436;32;20127;-75
2021/03/26 00:30:20;;;;;;;16.00;5.13;;;;;;;;;;4392824;32;20229;-72
2021/03/26 00:32:46;;;;;;;12.93;5.30;;;;;;;;;;4391150;32;20135;-74
2021/03/26 00:35:12;;;;;;;12.97;5.10;;;;;;;;;;4381919;32;20138;-73
2021/03/26 00:37:38;;;;;;;13.10;4.97;;;;;;;;;;4375959;32;20506;-75
2021/03/26 00:40:04;;;;;;;12.63;5.30;;;;;;;;;;4376568;32;20163;-73
2021/03/26 00:42:29;;;;;;;11.53;5.07;;;;;;;;;;4376303;32;20570;-75
2021/03/26 00:44:54;;;;;;;13.27;5.57;;;;;;;;;;4376389;32;20213;-74
2021/03/26 00:47:19;;;;;;;12.37;4.87;;;;;;;;;;4391205;32;20605;-73
2021/03/26 00:49:45;;;;;;;15.40;5.00;;;;;;;;;;4392734;32;20234;-75
2021/03/26 00:52:10;;;;;;;13.90;5.80;;;;;;;;;;4391138;32;20130;-75
2021/03/26 00:54:35;;;;;;;14.90;4.87;;;;;;;;;;4393093;32;20150;-73
2021/03/26 00:57:01;;;;;;;15.27;5.50;;;;;;;;;;4393012;32;20127;-75
2021/03/26 00:59:26;;;;;;;12.63;5.33;;;;;;;;;;4391669;32;20448;-73
2021/03/26 01:01:51;;;;;;;11.57;4.80;;;;;;;;;;4389715;32;20186;-72
2021/03/26 01:04:16;;;;;;;12.90;5.63;;;;;;;;;;4390785;32;20153;-75
2021/03/26 01:06:41;;;;;;;12.93;5.60;;;;;;;;;;4391558;32;20127;-75
2021/03/26 01:09:07;;;;;;;11.40;5.03;;;;;;;;;;4391098;32;20480;-74
2021/03/26 01:11:33;;;;;;;13.97;5.43;;;;;;;;;;4377722;32;20204;-75
2021/03/26 01:13:59;;;;;;;11.97;5.97;;;;;;;;;;4377856;32;20139;-74
2021/03/26 01:16:25;;;;;;;15.13;6.47;;;;;;;;;;4376537;32;20131;-74
2021/03/26 01:18:50;;;;;;;15.47;6.30;;;;;;;;;;4375824;32;20143;-73
2021/03/26 01:21:18;;;;;;;15.33;6.30;;;;;;;;;;4376100;32;20166;-74
2021/03/26 01:23:43;;;;;;;13.43;6.50;;;;;;;;;;4376126;32;20135;-73
2021/03/26 01:26:09;;;;;;;17.50;7.47;;;;;;;;;;4375837;32;20520;-74
2021/03/26 01:28:34;;;;;;;14.10;6.80;;;;;;;;;;4378922;32;20197;-73
2021/03/26 01:31:00;;;;;;;13.27;6.77;;;;;;;;;;4392219;32;20138;-74
2021/03/26 01:33:25;;;;;;;13.50;7.50;;;;;;;;;;4390409;32;20214;-72
2021/03/26 01:35:51;;;;;;;17.00;8.00;;;;;;;;;;4392359;32;20555;-74
2021/03/26 01:38:16;;;;;;;13.63;7.10;;;;;;;;;;4390069;32;20166;-74
2021/03/26 01:40:44;;;;;;;17.03;7.60;;;;;;;;;;4392045;32;20134;-73
2021/03/26 01:43:11;;;;;;;13.90;7.37;;;;;;;;;;4390232;32;20547;-73
2021/03/26 01:45:36;;;;;;;13.43;7.30;;;;;;;;;;4376640;32;20182;-74
2021/03/26 01:48:02;;;;;;;14.50;7.50;;;;;;;;;;4376864;32;20162;-74
2021/03/26 01:50:29;;;;;;;14.87;7.90;;;;;;;;;;4390611;32;20142;-73
2021/03/26 01:52:54;;;;;;;13.30;7.90;;;;;;;;;;4376536;32;20650;-72
2021/03/26 01:55:28;;;;;;;13.90;7.20;;;;;;;;;;4372537;32;20178;-74
2021/03/26 01:57:53;;;;;;;14.00;7.43;;;;;;;;;;4376623;32;20216;-74
2021/03/26 02:00:24;;;;;;;15.37;7.97;;;;;;;;;;4376239;32;20505;-74
2021/03/26 02:02:49;;;;;;;14.40;7.70;;;;;;;;;;4376211;32;20457;-74
2021/03/26 02:05:19;;;;;;;18.67;8.00;;;;;;;;;;4390418;32;20184;-72
2021/03/26 02:07:44;;;;;;;15.17;8.17;;;;;;;;;;4376051;32;20210;-74
2021/03/26 02:10:09;;;;;;;16.07;8.03;;;;;;;;;;4389794;32;20130;-74
2021/03/26 02:12:35;;;;;;;14.33;7.87;;;;;;;;;;4390240;32;20317;-73
2021/03/26 02:15:05;;;;;;;15.13;7.50;;;;;;;;;;4376065;32;20200;-74
2021/03/26 02:17:32;;;;;;;16.23;7.60;;;;;;;;;;4389792;32;20545;-73
2021/03/26 02:20:04;;;;;;;13.60;7.27;;;;;;;;;;4391373;32;20513;-73
2021/03/26 02:22:30;;;;;;;12.73;7.67;;;;;;;;;;4376116;32;20154;-73
2021/03/26 02:24:56;;;;;;;17.67;6.93;;;;;;;;;;4390189;32;20180;-73
2021/03/26 02:27:27;;;;;;;13.30;6.83;;;;;;;;;;4391465;32;20201;-73
2021/03/26 02:29:53;;;;;;;12.37;7.10;;;;;;;;;;4390295;32;20150;-73
2021/03/26 02:32:24;;;;;;;11.47;6.10;;;;;;;;;;4391144;32;20210;-73
2021/03/26 02:35:08;;;;;;;13.97;6.70;;;;;;;;;;4389598;32;20494;-73
2021/03/26 02:37:34;;;;;;;10.97;6.07;;;;;;;;;;4390052;32;20189;-73
2021/03/26 02:39:59;;;;;;;15.13;6.73;;;;;;;;;;4390255;32;20253;-73
2021/03/26 02:42:30;;;;;;;10.53;6.37;;;;;;;;;;4390567;32;20127;-74
2021/03/26 02:44:59;;;;;;;13.63;6.60;;;;;;;;;;4388078;32;20131;-74
2021/03/26 02:47:34;;;;;;;12.83;6.67;;;;;;;;;;4375073;32;20124;-74
2021/03/26 02:50:03;;;;;;;15.33;6.80;;;;;;;;;;4384597;32;20169;-74
2021/03/26 02:52:31;;;;;;;16.43;7.40;;;;;;;;;;4376473;32;20131;-74
2021/03/26 02:55:07;;;;;;;11.63;7.43;;;;;;;;;;4374567;32;20157;-74
2021/03/26 02:57:35;;;;;;;13.10;7.60;;;;;;;;;;4362488;32;20166;-74
2021/03/26 03:00:35;;;;;;;14.50;7.50;;;;;;;;;;4374394;32;20123;-75
2021/03/26 03:03:02;;;;;;;15.30;8.73;;;;;;;;;;4330112;33;20239;-75
2021/03/26 03:05:32;;;;;;;16.90;10.27;;;;;;;;;;4365084;32;20475;-74
2021/03/26 03:08:06;;;;;;;20.60;9.63;;;;;;;;;;4360662;32;20159;-73
2021/03/26 03:10:47;;;;;;;17.73;9.87;;;;;;;;;;4373316;32;20678;-73
2021/03/26 03:13:15;;;;;;;23.77;11.97;;;;;;;;;;4390303;32;20134;-74
2021/03/26 03:15:50;;;;;;;23.77;12.20;;;;;;;;;;4391066;32;20169;-72
2021/03/26 03:18:21;;;;;;;25.47;12.90;;;;;;;;;;4390023;32;20203;-73
2021/03/26 03:21:04;;;;;;;23.77;14.37;;;;;;;;;;4389176;32;20126;-73
2021/03/26 03:23:39;;;;;;;27.00;14.63;;;;;;;;;;4389772;32;20205;-73
2021/03/26 03:26:12;;;;;;;25.10;14.90;;;;;;;;;;4390186;32;20188;-73
2021/03/26 03:28:43;;;;;;;33.63;16.23;;;;;;;;;;4372203;32;20254;-74
2021/03/26 03:31:12;;;;;;;33.70;17.60;;;;;;;;;;4375117;32;20173;-74
2021/03/26 03:33:59;;;;;;;32.60;18.47;;;;;;;;;;4374315;32;20577;-74
2021/03/26 03:36:26;;;;;;;32.03;17.73;;;;;;;;;;4375370;32;20212;-74
2021/03/26 03:38:56;;;;;;;33.60;18.87;;;;;;;;;;4373982;32;20224;-74
2021/03/26 03:41:29;;;;;;;34.80;19.40;;;;;;;;;;4362037;32;20182;-74
2021/03/26 03:44:12;;;;;;;32.70;18.97;;;;;;;;;;4374200;32;20194;-74
2021/03/26 03:46:41;;;;;;;38.77;20.07;;;;;;;;;;4375761;32;20127;-74
2021/03/26 03:49:12;;;;;;;31.90;18.93;;;;;;;;;;4360390;32;20167;-74
2021/03/26 03:51:47;;;;;;;34.87;19.10;;;;;;;;;;4376211;32;20528;-75
2021/03/26 03:54:22;;;;;;;33.07;19.80;;;;;;;;;;4375509;32;20131;-72
2021/03/26 03:56:57;;;;;;;33.00;18.90;;;;;;;;;;4374194;32;20127;-74
2021/03/26 03:59:25;;;;;;;31.73;17.60;;;;;;;;;;4362172;32;20174;-70
2021/03/26 04:01:55;;;;;;;34.33;19.13;;;;;;;;;;4364903;32;20512;-71
2021/03/26 04:04:23;;;;;;;36.97;19.50;;;;;;;;;;4378406;32;20143;-74
2021/03/26 04:07:00;;;;;;;36.00;19.27;;;;;;;;;;4376627;32;20153;-73
2021/03/26 04:09:30;;;;;;;29.43;18.13;;;;;;;;;;4363861;32;20162;-74
2021/03/26 04:12:00;;;;;;;33.83;19.13;;;;;;;;;;4378312;32;20142;-75
2021/03/26 04:14:52;;;;;;;36.47;18.17;;;;;;;;;;4377043;32;20157;-71
2021/03/26 04:17:20;;;;;;;35.57;17.80;;;;;;;;;;4365728;32;20556;-72
2021/03/26 04:19:47;;;;;;;31.50;18.20;;;;;;;;;;4393610;32;20131;-72
2021/03/26 04:22:15;;;;;;;31.23;19.63;;;;;;;;;;4393812;32;20135;-73
2021/03/26 04:24:43;;;;;;;34.87;18.93;;;;;;;;;;4379450;32;20185;-76
2021/03/26 04:27:08;;;;;;;35.17;19.27;;;;;;;;;;4393042;32;20142;-74
2021/03/26 04:29:42;;;;;;;33.83;19.93;;;;;;;;;;4389606;32;20621;-75
2021/03/26 04:32:08;;;;;;;40.90;21.17;;;;;;;;;;4392057;32;20160;-74
2021/03/26 04:34:34;;;;;;;37.23;21.47;;;;;;;;;;4391376;32;20253;-73
2021/03/26 04:37:06;;;;;;;40.43;22.77;;;;;;;;;;4391461;32;20177;-74
2021/03/26 04:39:35;;;;;;;39.97;21.30;;;;;;;;;;4392717;32;20127;-73
2021/03/26 04:42:18;;;;;;;41.83;22.00;;;;;;;;;;4391953;32;20154;-74
2021/03/26 04:44:49;;;;;;;42.33;21.17;;;;;;;;;;4392729;32;20450;-73
2021/03/26 04:47:14;;;;;;;40.30;22.23;;;;;;;;;;4391776;32;20131;-74
2021/03/26 04:49:43;;;;;;;40.13;21.73;;;;;;;;;;4391514;32;20165;-75
2021/03/26 04:52:13;;;;;;;38.43;21.53;;;;;;;;;;4391079;32;20222;-73
2021/03/26 04:54:44;;;;;;;40.90;21.63;;;;;;;;;;4393139;32;20192;-72
2021/03/26 04:57:14;;;;;;;40.83;21.63;;;;;;;;;;4391082;32;20139;-73
2021/03/26 04:59:42;;;;;;;39.37;20.40;;;;;;;;;;4391659;32;20126;-73
2021/03/26 05:02:10;;;;;;;38.40;20.67;;;;;;;;;;4392425;32;20158;-74
2021/03/26 05:04:38;;;;;;;42.73;21.93;;;;;;;;;;4391505;32;20135;-72
2021/03/26 05:07:10;;;;;;;38.10;20.73;;;;;;;;;;4377252;32;20181;-72
2021/03/26 05:09:37;;;;;;;39.43;20.63;;;;;;;;;;4390805;32;20477;-73
2021/03/26 05:12:05;;;;;;;36.83;20.00;;;;;;;;;;4391166;32;20520;-74
2021/03/26 05:14:41;;;;;;;36.10;20.17;;;;;;;;;;4376914;32;20236;-70
2021/03/26 05:17:13;;;;;;;40.93;22.17;;;;;;;;;;4390941;32;20203;-71
2021/03/26 05:19:38;;;;;;;37.00;21.13;;;;;;;;;;4390532;32;20168;-73
2021/03/26 05:22:25;;;;;;;35.67;20.50;;;;;;;;;;4377039;32;20197;-73
2021/03/26 05:24:53;;;;;;;35.60;20.30;;;;;;;;;;4391447;32;20305;-72
2021/03/26 05:27:18;;;;;;;45.27;20.73;;;;;;;;;;4391244;32;20173;-71
2021/03/26 05:29:44;;;;;;;34.73;19.90;;;;;;;;;;4391004;32;20534;-72
2021/03/26 05:32:22;;;;;;;37.73;19.90;;;;;;;;;;4364934;32;20163;-71
2021/03/26 05:35:01;;;;;;;40.57;21.80;;;;;;;;;;4376813;32;20126;-72
2021/03/26 05:37:40;;;;;;;38.13;20.53;;;;;;;;;;4375242;32;20234;-73
2021/03/26 05:40:21;;;;;;;38.47;20.70;;;;;;;;;;4361972;32;20158;-74
2021/03/26 05:43:05;;;;;;;42.47;20.43;;;;;;;;;;4363252;32;20431;-70
2021/03/26 05:45:49;;;;;;;36.87;19.03;;;;;;;;;;4386433;32;20150;-74
2021/03/26 05:48:36;;;;;;;35.77;19.47;;;;;;;;;;4385677;32;20599;-72
2021/03/26 05:51:20;;;;;;;31.97;18.57;;;;;;;;;;4375938;32;20131;-72
2021/03/26 05:53:55;;;;;;;36.63;19.47;;;;;;;;;;4376310;32;20135;-73
2021/03/26 05:56:30;;;;;;;36.30;19.10;;;;;;;;;;4375607;32;20165;-73
2021/03/26 05:59:16;;;;;;;38.43;19.47;;;;;;;;;;4389719;32;20165;-70
2021/03/26 06:01:41;;;;;;;33.40;18.27;;;;;;;;;;4389972;32;20533;-73
2021/03/26 06:04:25;;;;;;;33.80;18.20;;;;;;;;;;4390108;32;20131;-71
2021/03/26 06:06:52;;;;;;;33.70;18.30;;;;;;;;;;4388562;32;20161;-71
2021/03/26 06:09:20;;;;;;;33.27;18.83;;;;;;;;;;4375094;32;20615;-73
2021/03/26 06:11:46;;;;;;;34.17;19.23;;;;;;;;;;4376706;32;20127;-74
2021/03/26 06:14:27;;;;;;;35.40;18.15;;;;;;;;;;4384829;32;20131;-72
2021/03/26 06:17:08;;;;;;;34.27;17.33;;;;;;;;;;4381388;32;20146;-74
2021/03/26 06:19:54;;;;;;;32.43;17.57;;;;;;;;;;4375808;32;20127;-72
2021/03/26 06:22:28;;;;;;;32.43;17.60;;;;;;;;;;4376137;32;20131;-74
2021/03/26 06:25:16;;;;;;;32.97;17.13;;;;;;;;;;4375429;32;20131;-73
2021/03/26 06:28:05;;;;;;;34.83;17.33;;;;;;;;;;4386664;32;20142;-73
2021/03/26 06:30:40;;;;;;;29.53;16.20;;;;;;;;;;4379540;32;20147;-75
2021/03/26 06:33:15;;;;;;;31.63;16.60;;;;;;;;;;4390857;32;20123;-72
2021/03/26 06:35:56;;;;;;;32.20;16.20;;;;;;;;;;4389407;32;20156;-69
2021/03/26 06:38:24;;;;;;;28.17;15.20;;;;;;;;;;4389483;32;20567;-74
2021/03/26 06:41:19;;;;;;;27.43;15.73;;;;;;;;;;4375521;32;20151;-72
2021/03/26 06:44:04;;;;;;;31.47;15.90;;;;;;;;;;4322650;32;20188;-72
2021/03/26 06:46:48;;;;;;;33.17;15.77;;;;;;;;;;4376236;32;20134;-75
2021/03/26 06:49:23;;;;;;;34.50;15.80;;;;;;;;;;4390890;32;20166;-74
2021/03/26 06:51:53;;;;;;;28.77;15.37;;;;;;;;;;4389319;32;20164;-73
2021/03/26 06:54:28;;;;;;;30.57;16.33;;;;;;;;;;4375884;32;20150;-71
2021/03/26 06:57:12;;;;;;;30.60;16.23;;;;;;;;;;4391751;32;20129;-75
2021/03/26 06:59:46;;;;;;;31.10;16.53;;;;;;;;;;4390073;32;20931;-70
2021/03/26 07:02:22;;;;;;;29.07;16.27;;;;;;;;;;4390012;32;20152;-74
2021/03/26 07:04:50;;;;;;;29.70;15.37;;;;;;;;;;4390275;32;20153;-71
2021/03/26 07:07:25;;;;;;;29.37;16.27;;;;;;;;;;4391116;32;20157;-72
2021/03/26 07:10:09;;;;;;;30.47;15.70;;;;;;;;;;4389798;32;20142;-74
2021/03/26 07:12:48;;;;;;;32.43;15.40;;;;;;;;;;4389090;32;20499;-69
2021/03/26 07:15:34;;;;;;;29.07;15.70;;;;;;;;;;4391030;32;20180;-73
2021/03/26 07:18:10;;;;;;;28.73;15.93;;;;;;;;;;4375416;32;20173;-74
2021/03/26 07:20:41;;;;;;;32.47;15.03;;;;;;;;;;4375046;32;20192;-72
2021/03/26 07:23:25;;;;;;;32.93;15.90;;;;;;;;;;4374588;32;20523;-72
2021/03/26 07:26:07;;;;;;;29.87;15.77;;;;;;;;;;4373884;32;20131;-71
2021/03/26 07:28:56;;;;;;;27.13;14.37;;;;;;;;;;4378322;32;20229;-73
2021/03/26 07:31:22;;;;;;;28.70;14.70;;;;;;;;;;4375737;32;20142;-72
2021/03/26 07:33:53;;;;;;;28.67;15.53;;;;;;;;;;4389238;32;20123;-69
2021/03/26 07:36:34;;;;;;;25.40;14.23;;;;;;;;;;4390812;32;20468;-72
2021/03/26 07:39:04;;;;;;;26.33;14.13;;;;;;;;;;4392440;32;20135;-74
2021/03/26 07:41:48;;;;;;;29.23;15.07;;;;;;;;;;4392796;32;20525;-74
2021/03/26 07:44:19;;;;;;;26.17;14.33;;;;;;;;;;4392115;32;20131;-73
2021/03/26 07:47:03;;;;;;;26.48;14.10;;;;;;;;;;4392229;32;20159;-71
2021/03/26 07:49:47;;;;;;;25.93;14.27;;;;;;;;;;4391680;32;20617;-75
2021/03/26 07:52:24;;;;;;;28.12;14.57;;;;;;;;;;4392377;32;20566;-72
2021/03/26 07:54:49;;;;;;;26.17;14.57;;;;;;;;;;4392740;32;20215;-72
2021/03/26 07:57:15;;;;;;;25.20;13.77;;;;;;;;;;4390719;32;20610;-74
2021/03/26 07:59:40;;;;;;;23.33;13.75;;;;;;;;;;4392310;32;20229;-71
2021/03/26 08:02:18;;;;;;;24.52;13.25;;;;;;;;;;4392345;32;20180;-72
2021/03/26 08:04:51;;;;;;;25.52;14.23;;;;;;;;;;4392162;32;20161;-74
2021/03/26 08:07:35;;;;;;;26.10;12.98;;;;;;;;;;4391114;32;20130;-75
2021/03/26 08:10:00;;;;;;;21.40;12.90;;;;;;;;;;4377466;32;20178;-74
2021/03/26 08:12:40;;;;;;;23.00;12.73;;;;;;;;;;4391848;32;20196;-76
2021/03/26 08:15:15;;;;;;;24.08;12.68;;;;;;;;;;4380279;32;20150;-75
2021/03/26 08:17:40;;;;;;;24.75;13.07;;;;;;;;;;4377582;32;20162;-75
2021/03/26 08:20:20;;;;;;;22.10;12.27;;;;;;;;;;4391642;32;20123;-75
2021/03/26 08:23:04;;;;;;;23.00;12.63;;;;;;;;;;4377599;32;20193;-71
2021/03/26 08:25:41;;;;;;;25.40;12.77;;;;;;;;;;4381083;32;20154;-72
2021/03/26 08:28:32;;;;;;;25.00;13.48;;;;;;;;;;4362405;32;20621;-73
2021/03/26 08:31:16;;;;;;;24.50;12.52;;;;;;;;;;4369069;32;20666;-76
2021/03/26 08:34:00;;;;;;;26.27;12.98;;;;;;;;;;4388649;32;20146;-75
2021/03/26 08:36:25;;;;;;;23.77;12.23;;;;;;;;;;4371267;32;20550;-74
2021/03/26 08:39:05;;;;;;;23.20;12.55;;;;;;;;;;4373574;32;20232;-75
2021/03/26 08:41:33;;;;;;;23.67;12.98;;;;;;;;;;4369957;32;20139;-75
2021/03/26 08:43:58;;;;;;;24.65;13.15;;;;;;;;;;4376323;32;20618;-75
2021/03/26 08:46:29;;;;;;;20.95;12.40;;;;;;;;;;4376080;32;20348;-74
2021/03/26 08:49:13;;;;;;;27.08;12.88;;;;;;;;;;4362421;32;20205;-75
2021/03/26 08:51:57;;;;;;;24.37;11.93;;;;;;;;;;4361318;32;20285;-77
2021/03/26 08:54:31;;;;;;;24.90;12.27;;;;;;;;;;4361354;32;20135;-73
2021/03/26 08:57:15;;;;;;;23.60;11.93;;;;;;;;;;4370357;32;20154;-72
2021/03/26 08:59:46;;;;;;;23.45;12.32;;;;;;;;;;4375007;32;20204;-75
2021/03/26 09:02:24;;;;;;;23.45;12.15;;;;;;;;;;4376471;32;20123;-75
2021/03/26 09:05:04;;;;;;;24.40;12.73;;;;;;;;;;4376245;32;20146;-76
2021/03/26 09:07:48;;;;;;;24.40;11.82;;;;;;;;;;4376052;32;20143;-73
2021/03/26 09:10:19;;;;;;;23.48;12.07;;;;;;;;;;4375865;32;20506;-77
2021/03/26 09:12:57;;;;;;;20.42;11.60;;;;;;;;;;4376286;32;20203;-73
2021/03/26 09:15:31;;;;;;;18.50;9.90;;;;;;;;;;4376159;32;20193;-72
2021/03/26 09:18:15;;;;;;;18.80;10.75;;;;;;;;;;4374853;32;20175;-76
2021/03/26 09:20:47;;;;;;;21.40;11.20;;;;;;;;;;4376098;32;20135;-75
2021/03/26 09:23:16;;;;;;;19.92;10.80;;;;;;;;;;4375343;32;20473;-74
2021/03/26 09:26:06;;;;;;;22.05;10.65;;;;;;;;;;4375022;32;20127;-76
2021/03/26 09:28:39;;;;;;;19.15;9.93;;;;;;;;;;4374291;32;20163;-75
2021/03/26 09:31:08;;;;;;;17.40;9.68;;;;;;;;;;4376457;32;20216;-71
2021/03/26 09:33:34;;;;;;;17.30;9.90;;;;;;;;;;4375798;32;20185;-71
2021/03/26 09:36:06;;;;;;;19.67;10.20;;;;;;;;;;4375861;32;20210;-76
2021/03/26 09:38:31;;;;;;;16.45;9.07;;;;;;;;;;4386996;32;20159;-75
2021/03/26 09:41:01;;;;;;;17.80;8.75;;;;;;;;;;4391032;32;20123;-76
2021/03/26 09:43:32;;;;;;;14.95;8.98;;;;;;;;;;4390286;32;20146;-76
2021/03/26 09:46:02;;;;;;;17.87;8.95;;;;;;;;;;4390349;32;20127;-73
2021/03/26 09:48:44;;;;;;;14.95;7.50;;;;;;;;;;4389758;32;20161;-75
2021/03/26 09:51:17;;;;;;;15.10;7.37;;;;;;;;;;4390151;32;20146;-73
2021/03/26 09:53:43;;;;;;;12.35;7.22;;;;;;;;;;4390150;32;20153;-73
2021/03/26 09:56:16;;;;;;;13.18;7.00;;;;;;;;;;4390144;32;20135;-74
2021/03/26 09:58:53;;;;;;;12.88;7.40;;;;;;;;;;4389805;32;20153;-78
2021/03/26 10:01:20;;;;;;;14.32;8.15;;;;;;;;;;4390393;32;20544;-76
2021/03/26 10:03:49;;;;;;;13.88;6.22;;;;;;;;;;4390133;32;20147;-76
2021/03/26 10:06:33;;;;;;;13.65;4.55;;;;;;;;;;4389975;32;20130;-77
2021/03/26 10:09:10;;;;;;;9.95;4.18;;;;;;;;;;4389960;32;20165;-71
2021/03/26 10:11:45;;;;;;;9.73;4.65;;;;;;;;;;4389648;32;20122;-74
2021/03/26 10:14:14;;;;;;;9.68;3.90;;;;;;;;;;4389520;32;20581;-72
2021/03/26 10:16:52;;;;;;;8.75;3.53;;;;;;;;;;4389825;32;20555;-75
2021/03/26 10:19:36;;;;;;;7.22;3.20;;;;;;;;;;4389654;32;20472;-74
2021/03/26 10:22:04;;;;;;;6.12;3.22;;;;;;;;;;4389821;32;20501;-75
2021/03/26 10:24:34;;;;;;;8.48;3.05;;;;;;;;;;4390029;32;20531;-76
2021/03/26 10:27:02;;;;;;;11.43;3.75;;;;;;;;;;4389999;32;20126;-76
2021/03/26 10:29:44;;;;;;;6.53;3.58;;;;;;;;;;4376097;32;20200;-77
2021/03/26 10:32:14;;;;;;;9.57;3.78;;;;;;;;;;4390145;32;20551;-72
2021/03/26 10:34:44;;;;;;;8.85;3.70;;;;;;;;;;4390889;32;20154;-76
2021/03/26 10:37:24;;;;;;;10.60;3.70;;;;;;;;;;4389858;32;20158;-75
2021/03/26 10:39:52;;;;;;;6.47;3.60;;;;;;;;;;4376349;32;20499;-77
2021/03/26 10:42:36;;;;;;;9.23;3.90;;;;;;;;;;4390073;32;20173;-73
2021/03/26 10:45:20;;;;;;;5.78;3.62;;;;;;;;;;4389816;32;20591;-72
2021/03/26 10:47:50;;;;;;;11.95;4.20;;;;;;;;;;4377314;32;20185;-76
2021/03/26 10:50:25;;;;;;;9.57;4.10;;;;;;;;;;4390073;32;20211;-76
2021/03/26 10:53:13;;;;;;;8.32;3.85;;;;;;;;;;4389890;32;20148;-76
2021/03/26 10:55:45;;;;;;;8.45;3.25;;;;;;;;;;4381489;32;20327;-70
2021/03/26 10:58:22;;;;;;;9.00;3.95;;;;;;;;;;4390729;32;20138;-74
2021/03/26 11:00:56;;;;;;;18.12;4.70;;;;;;;;;;4375559;32;20628;-74
2021/03/26 11:03:25;;;;;;;8.35;3.80;;;;;;;;;;4389830;32;20138;-76
2021/03/26 11:05:52;;;;;;;6.00;3.25;;;;;;;;;;4389628;32;20578;-73
2021/03/26 11:08:24;;;;;;;6.70;3.50;;;;;;;;;;4375946;32;20471;-70
2021/03/26 11:10:56;;;;;;;8.90;3.40;;;;;;;;;;4378455;32;20155;-72
2021/03/26 11:13:26;;;;;;;5.15;2.55;;;;;;;;;;4392385;32;20153;-73
2021/03/26 11:15:54;;;;;;;6.35;2.50;;;;;;;;;;4381972;32;20150;-76
2021/03/26 11:18:24;;;;;;;6.55;2.50;;;;;;;;;;4378417;32;20166;-74
2021/03/26 11:20:57;;;;;;;4.15;2.15;;;;;;;;;;4389354;32;20174;-72
2021/03/26 11:23:25;;;;;;;5.90;2.40;;;;;;;;;;4392131;32;20158;-74
2021/03/26 11:26:05;;;;;;;8.65;2.35;;;;;;;;;;4392125;32;20205;-75
2021/03/26 11:28:41;;;;;;;6.60;2.20;;;;;;;;;;4377913;32;20162;-72
2021/03/26 11:31:29;;;;;;;11.30;2.40;;;;;;;;;;4391977;32;20205;-72
2021/03/26 11:34:13;;;;;;;6.00;2.47;;;;;;;;;;4392254;32;20194;-72
2021/03/26 11:36:48;;;;;;;7.32;2.53;;;;;;;;;;4377795;32;20189;-74
2021/03/26 11:39:16;;;;;;;4.72;2.65;;;;;;;;;;4391318;32;20213;-71
2021/03/26 11:41:49;;;;;;;6.87;3.03;;;;;;;;;;4377762;32;20185;-74
2021/03/26 11:44:15;;;;;;;8.00;3.45;;;;;;;;;;4381433;32;20371;-71
2021/03/26 11:46:43;;;;;;;7.82;3.05;;;;;;;;;;4378725;32;20526;-76
2021/03/26 11:49:20;;;;;;;5.57;2.70;;;;;;;;;;4378110;32;20583;-74
2021/03/26 11:51:58;;;;;;;7.70;3.47;;;;;;;;;;4377933;32;20175;-73
2021/03/26 11:54:43;;;;;;;5.72;3.35;;;;;;;;;;4379932;32;20209;-72
2021/03/26 11:57:12;;;;;;;8.75;3.30;;;;;;;;;;4379291;32;20166;-75
2021/03/26 11:59:43;;;;;;;8.40;3.00;;;;;;;;;;4392191;32;20628;-76
2021/03/26 12:02:24;;;;;;;8.52;2.95;;;;;;;;;;4377506;32;20646;-75
2021/03/26 12:04:52;;;;;;;8.32;3.15;;;;;;;;;;4391854;32;20208;-75
2021/03/26 12:07:20;;;;;;;6.70;2.62;;;;;;;;;;4381128;32;20173;-73
2021/03/26 12:10:06;;;;;;;7.03;2.80;;;;;;;;;;4392818;32;20217;-72
2021/03/26 12:12:37;;;;;;;5.80;2.42;;;;;;;;;;4392790;32;20151;-75
2021/03/26 12:15:08;;;;;;;5.85;2.75;;;;;;;;;;4392602;32;20758;-73
2021/03/26 12:17:39;;;;;;;5.12;2.80;;;;;;;;;;4386595;32;20159;-76
2021/03/26 12:20:23;;;;;;;6.93;2.60;;;;;;;;;;4363705;32;20229;-72
2021/03/26 12:22:57;;;;;;;6.80;2.80;;;;;;;;;;4361610;32;20170;-72
2021/03/26 12:25:44;;;;;;;5.18;2.20;;;;;;;;;;4362140;32;20642;-72
2021/03/26 12:28:15;;;;;;;7.12;2.55;;;;;;;;;;4380995;32;20181;-75
2021/03/26 12:30:48;;;;;;;4.90;2.28;;;;;;;;;;4389984;32;20166;-72
2021/03/26 12:33:23;;;;;;;7.85;2.90;;;;;;;;;;4391838;32;20172;-72
2021/03/26 12:35:56;;;;;;;6.78;2.58;;;;;;;;;;4391015;32;20573;-73
2021/03/26 12:38:29;;;;;;;6.25;2.90;;;;;;;;;;4376877;32;20197;-73
2021/03/26 12:40:54;;;;;;;8.60;3.12;;;;;;;;;;4376844;32;20247;-75
2021/03/26 12:43:25;;;;;;;9.77;3.05;;;;;;;;;;4378739;32;20229;-71
2021/03/26 12:45:59;;;;;;;9.57;2.72;;;;;;;;;;4377027;32;20655;-73
2021/03/26 12:48:33;;;;;;;5.47;2.72;;;;;;;;;;4390565;32;20177;-75
2021/03/26 12:51:05;;;;;;;7.97;3.35;;;;;;;;;;4377141;32;20177;-75
2021/03/26 12:53:37;;;;;;;7.68;3.15;;;;;;;;;;4377806;32;20174;-74
2021/03/26 12:56:17;;;;;;;6.95;3.00;;;;;;;;;;4390566;32;20732;-74
2021/03/26 12:58:57;;;;;;;4.65;3.03;;;;;;;;;;4390639;32;20620;-73
2021/03/26 13:01:42;;;;;;;6.70;3.90;;;;;;;;;;4376472;32;20632;-73
2021/03/26 13:04:12;;;;;;;6.10;2.65;;;;;;;;;;4374949;32;20598;-73
2021/03/26 13:06:40;;;;;;;5.57;3.53;;;;;;;;;;4376656;32;20170;-75
2021/03/26 13:09:09;;;;;;;6.68;3.58;;;;;;;;;;4381343;32;20231;-75
2021/03/26 13:11:41;;;;;;;5.93;3.70;;;;;;;;;;4361107;32;20209;-70
2021/03/26 13:14:12;;;;;;;5.18;3.33;;;;;;;;;;4361265;32;20167;-73
2021/03/26 13:16:37;;;;;;;4.72;3.35;;;;;;;;;;4385703;32;20225;-75
2021/03/26 13:19:22;;;;;;;7.45;3.45;;;;;;;;;;4390072;32;20135;-73
2021/03/26 13:21:52;;;;;;;6.65;3.90;;;;;;;;;;4388646;32;20254;-73
2021/03/26 13:24:25;;;;;;;5.90;3.75;;;;;;;;;;4373097;32;20234;-72
2021/03/26 13:27:09;;;;;;;8.18;4.10;;;;;;;;;;4390438;32;20184;-72
2021/03/26 13:29:34;;;;;;;6.87;4.03;;;;;;;;;;4376878;32;20266;-75
2021/03/26 13:32:07;;;;;;;12.05;4.12;;;;;;;;;;4389719;32;20555;-73
2021/03/26 13:34:37;;;;;;;5.93;3.67;;;;;;;;;;4390992;32;20180;-77
2021/03/26 13:37:05;;;;;;;5.12;3.40;;;;;;;;;;4376055;32;20493;-74
2021/03/26 13:39:40;;;;;;;4.97;3.10;;;;;;;;;;4389875;32;20194;-73
2021/03/26 13:42:12;;;;;;;7.60;3.55;;;;;;;;;;4376168;32;20297;-70
2021/03/26 13:44:49;;;;;;;5.72;3.20;;;;;;;;;;4390090;32;20126;-75
2021/03/26 13:47:17;;;;;;;5.03;3.12;;;;;;;;;;4390407;32;20158;-71
2021/03/26 13:49:45;;;;;;;5.10;2.65;;;;;;;;;;4371847;32;20154;-74
2021/03/26 13:52:13;;;;;;;4.70;2.95;;;;;;;;;;4361145;32;20159;-73
2021/03/26 13:54:41;;;;;;;5.75;2.80;;;;;;;;;;4360776;32;20550;-72
2021/03/26 13:57:31;;;;;;;6.22;2.80;;;;;;;;;;4361212;32;20163;-71
2021/03/26 14:00:21;;;;;;;5.97;2.83;;;;;;;;;;4385238;32;20567;-73
2021/03/26 14:02:54;;;;;;;6.47;2.62;;;;;;;;;;4376341;32;20540;-72
2021/03/26 14:05:19;;;;;;;5.07;2.85;;;;;;;;;;4392422;32;20180;-74
2021/03/26 14:07:46;;;;;;;6.07;2.70;;;;;;;;;;4379039;32;20190;-74
2021/03/26 14:10:17;;;;;;;3.15;2.30;;;;;;;;;;4389323;32;20254;-70
2021/03/26 14:12:45;;;;;;;4.75;2.35;;;;;;;;;;4389867;32;20127;-71
2021/03/26 14:15:24;;;;;;;3.47;2.22;;;;;;;;;;4374819;32;20539;-73
2021/03/26 14:18:09;;;;;;;3.25;2.40;;;;;;;;;;4375407;32;20174;-73
2021/03/26 14:20:49;;;;;;;5.18;2.40;;;;;;;;;;4374096;32;20222;-73
2021/03/26 14:23:17;;;;;;;6.30;2.55;;;;;;;;;;4361569;32;20248;-72
2021/03/26 14:25:46;;;;;;;2.50;2.03;;;;;;;;;;4386754;32;20150;-73
2021/03/26 14:28:20;;;;;;;4.45;2.10;;;;;;;;;;4386410;32;20158;-73
2021/03/26 14:30:45;;;;;;;3.17;2.10;;;;;;;;;;4388967;32;20174;-74
2021/03/26 14:33:21;;;;;;;3.15;2.20;;;;;;;;;;4383839;32;20572;-73
2021/03/26 14:35:46;;;;;;;4.03;1.90;;;;;;;;;;4377826;32;20617;-77
2021/03/26 14:38:35;;;;;;;4.40;2.10;;;;;;;;;;4380084;32;20170;-73
2021/03/26 14:41:11;;;;;;;2.95;2.30;;;;;;;;;;4346377;32;20189;-71
2021/03/26 14:43:37;;;;;;;4.18;2.30;;;;;;;;;;4373849;32;20135;-73
2021/03/26 14:46:03;;;;;;;6.80;2.35;;;;;;;;;;4360521;32;20510;-72
2021/03/26 14:48:34;;;;;;;5.70;2.30;;;;;;;;;;4373275;32;20226;-70
2021/03/26 14:51:15;;;;;;;3.58;2.00;;;;;;;;;;4375206;32;20123;-72
2021/03/26 14:53:50;;;;;;;5.62;2.37;;;;;;;;;;4359768;32;20522;-72
2021/03/26 14:56:21;;;;;;;3.72;2.40;;;;;;;;;;4362157;32;20166;-74
2021/03/26 14:58:49;;;;;;;5.07;2.40;;;;;;;;;;4378786;32;20135;-71
2021/03/26 15:01:17;;;;;;;6.18;2.40;;;;;;;;;;4375176;32;20216;-72